sensor_id;sensor_type;location;lat;lon;timestamp;P1;durP1;ratioP1;P2;durP2;ratioP2
39128;SDS011;24864;49.940;19.770;2022-07-23T00:02:11;10.60;;;9.20;;
39128;SDS011;24864;49.940;19.770;2022-07-23T00:04:39;10.05;;;9.10;;
39128;SDS011;24864;49.940;19.770;2022-07-23T00:07:07;10.20;;;9.02;;
39128;SDS011;24864;49.940;19.770;2022-07-23T00:09:35;11.18;;;10.18;;
39128;SDS011;24864;49.940;19.770;2022-07-23T00:12:05;9.63;;;8.63;;
39128;SDS011;24864;49.940;19.770;2022-07-23T00:14:33;10.52;;;9.35;;
39128;SDS011;24864;49.940;19.770;2022-07-23T00:17:01;15.43;;;8.95;;
39128;SDS011;24864;49.940;19.770;2022-07-23T00:19:29;11.55;;;9.95;;
39128;SDS011;24864;49.940;19.770;2022-07-23T00:21:58;10.75;;;9.00;;
39128;SDS011;24864;49.940;19.770;2022-07-23T00:24:26;13.45;;;9.52;;
39128;SDS011;24864;49.940;19.770;2022-07-23T00:26:54;14.77;;;9.68;;
39128;SDS011;24864;49.940;19.770;2022-07-23T00:29:23;10.48;;;9.18;;
39128;SDS011;24864;49.940;19.770;2022-07-23T00:31:52;12.52;;;9.57;;
39128;SDS011;24864;49.940;19.770;2022-07-23T00:34:19;11.98;;;9.55;;
39128;SDS011;24864;49.940;19.770;2022-07-23T00:36:47;13.52;;;9.32;;
39128;SDS011;24864;49.940;19.770;2022-07-23T00:39:15;9.75;;;8.63;;
39128;SDS011;24864;49.940;19.770;2022-07-23T00:41:43;14.00;;;9.85;;
39128;SDS011;24864;49.940;19.770;2022-07-23T00:44:16;13.10;;;9.30;;
39128;SDS011;24864;49.940;19.770;2022-07-23T00:46:47;14.73;;;10.20;;
39128;SDS011;24864;49.940;19.770;2022-07-23T00:49:19;11.70;;;10.25;;
39128;SDS011;24864;49.940;19.770;2022-07-23T00:51:48;11.82;;;9.98;;
39128;SDS011;24864;49.940;19.770;2022-07-23T00:54:17;10.60;;;9.60;;
39128;SDS011;24864;49.940;19.770;2022-07-23T00:56:46;12.55;;;9.95;;
39128;SDS011;24864;49.940;19.770;2022-07-23T00:59:14;11.15;;;9.93;;
39128;SDS011;24864;49.940;19.770;2022-07-23T01:01:42;14.23;;;10.75;;
39128;SDS011;24864;49.940;19.770;2022-07-23T01:04:13;11.82;;;10.63;;
39128;SDS011;24864;49.940;19.770;2022-07-23T01:06:43;13.95;;;11.52;;
39128;SDS011;24864;49.940;19.770;2022-07-23T01:09:12;13.73;;;11.15;;
39128;SDS011;24864;49.940;19.770;2022-07-23T01:11:40;13.98;;;10.70;;
39128;SDS011;24864;49.940;19.770;2022-07-23T01:14:12;14.95;;;10.23;;
39128;SDS011;24864;49.940;19.770;2022-07-23T01:16:41;16.13;;;11.45;;
39128;SDS011;24864;49.940;19.770;2022-07-23T01:19:11;15.35;;;10.50;;
39128;SDS011;24864;49.940;19.770;2022-07-23T01:21:41;11.50;;;10.30;;
39128;SDS011;24864;49.940;19.770;2022-07-23T01:24:12;12.35;;;9.93;;
39128;SDS011;24864;49.940;19.770;2022-07-23T01:26:41;15.90;;;10.63;;
39128;SDS011;24864;49.940;19.770;2022-07-23T01:29:11;14.13;;;9.85;;
39128;SDS011;24864;49.940;19.770;2022-07-23T01:31:40;14.35;;;10.90;;
39128;SDS011;24864;49.940;19.770;2022-07-23T01:34:09;14.95;;;11.32;;
39128;SDS011;24864;49.940;19.770;2022-07-23T01:36:37;11.02;;;9.88;;
39128;SDS011;24864;49.940;19.770;2022-07-23T01:39:06;16.63;;;11.00;;
39128;SDS011;24864;49.940;19.770;2022-07-23T01:41:37;12.48;;;10.60;;
39128;SDS011;24864;49.940;19.770;2022-07-23T01:44:05;13.23;;;11.65;;
39128;SDS011;24864;49.940;19.770;2022-07-23T01:46:33;14.38;;;10.77;;
39128;SDS011;24864;49.940;19.770;2022-07-23T01:49:02;12.27;;;11.05;;
39128;SDS011;24864;49.940;19.770;2022-07-23T01:51:30;13.57;;;11.60;;
39128;SDS011;24864;49.940;19.770;2022-07-23T01:53:58;16.33;;;12.82;;
39128;SDS011;24864;49.940;19.770;2022-07-23T01:56:26;12.95;;;11.65;;
39128;SDS011;24864;49.940;19.770;2022-07-23T01:58:55;14.10;;;11.75;;
39128;SDS011;24864;49.940;19.770;2022-07-23T02:01:24;15.52;;;12.38;;
39128;SDS011;24864;49.940;19.770;2022-07-23T02:03:52;17.80;;;12.00;;
39128;SDS011;24864;49.940;19.770;2022-07-23T02:06:20;13.63;;;12.15;;
39128;SDS011;24864;49.940;19.770;2022-07-23T02:08:48;13.80;;;11.75;;
39128;SDS011;24864;49.940;19.770;2022-07-23T02:11:16;15.05;;;12.38;;
39128;SDS011;24864;49.940;19.770;2022-07-23T02:13:44;13.05;;;10.85;;
39128;SDS011;24864;49.940;19.770;2022-07-23T02:16:13;12.55;;;11.35;;
39128;SDS011;24864;49.940;19.770;2022-07-23T02:18:41;12.93;;;11.63;;
39128;SDS011;24864;49.940;19.770;2022-07-23T02:21:09;16.75;;;12.00;;
39128;SDS011;24864;49.940;19.770;2022-07-23T02:23:37;17.27;;;13.20;;
39128;SDS011;24864;49.940;19.770;2022-07-23T02:26:05;14.20;;;12.63;;
39128;SDS011;24864;49.940;19.770;2022-07-23T02:28:33;13.52;;;12.13;;
39128;SDS011;24864;49.940;19.770;2022-07-23T02:31:01;18.30;;;12.15;;
39128;SDS011;24864;49.940;19.770;2022-07-23T02:33:31;15.00;;;12.35;;
39128;SDS011;24864;49.940;19.770;2022-07-23T02:35:59;13.90;;;11.82;;
39128;SDS011;24864;49.940;19.770;2022-07-23T02:38:27;12.63;;;11.32;;
39128;SDS011;24864;49.940;19.770;2022-07-23T02:40:55;16.73;;;12.07;;
39128;SDS011;24864;49.940;19.770;2022-07-23T02:43:23;16.35;;;13.07;;
39128;SDS011;24864;49.940;19.770;2022-07-23T02:45:51;14.82;;;12.18;;
39128;SDS011;24864;49.940;19.770;2022-07-23T02:48:19;16.45;;;13.38;;
39128;SDS011;24864;49.940;19.770;2022-07-23T02:50:48;16.13;;;12.75;;
39128;SDS011;24864;49.940;19.770;2022-07-23T02:53:18;14.07;;;12.57;;
39128;SDS011;24864;49.940;19.770;2022-07-23T02:55:46;15.63;;;12.52;;
39128;SDS011;24864;49.940;19.770;2022-07-23T02:58:14;18.17;;;13.40;;
39128;SDS011;24864;49.940;19.770;2022-07-23T03:00:41;16.50;;;12.02;;
39128;SDS011;24864;49.940;19.770;2022-07-23T03:03:09;13.38;;;12.07;;
39128;SDS011;24864;49.940;19.770;2022-07-23T03:05:37;15.50;;;12.77;;
39128;SDS011;24864;49.940;19.770;2022-07-23T03:08:07;13.65;;;12.10;;
39128;SDS011;24864;49.940;19.770;2022-07-23T03:10:35;15.25;;;12.13;;
39128;SDS011;24864;49.940;19.770;2022-07-23T03:13:03;15.73;;;12.25;;
39128;SDS011;24864;49.940;19.770;2022-07-23T03:15:31;13.65;;;11.38;;
39128;SDS011;24864;49.940;19.770;2022-07-23T03:17:59;13.38;;;12.00;;
39128;SDS011;24864;49.940;19.770;2022-07-23T03:20:27;15.35;;;12.02;;
39128;SDS011;24864;49.940;19.770;2022-07-23T03:22:54;14.82;;;12.10;;
39128;SDS011;24864;49.940;19.770;2022-07-23T03:25:24;13.77;;;11.27;;
39128;SDS011;24864;49.940;19.770;2022-07-23T03:27:52;12.93;;;11.55;;
39128;SDS011;24864;49.940;19.770;2022-07-23T03:30:20;14.90;;;12.05;;
39128;SDS011;24864;49.940;19.770;2022-07-23T03:32:48;12.13;;;10.77;;
39128;SDS011;24864;49.940;19.770;2022-07-23T03:35:16;13.50;;;11.88;;
39128;SDS011;24864;49.940;19.770;2022-07-23T03:37:44;14.15;;;12.73;;
39128;SDS011;24864;49.940;19.770;2022-07-23T03:40:12;12.63;;;11.50;;
39128;SDS011;24864;49.940;19.770;2022-07-23T03:42:42;15.73;;;12.98;;
39128;SDS011;24864;49.940;19.770;2022-07-23T03:45:10;13.32;;;12.05;;
39128;SDS011;24864;49.940;19.770;2022-07-23T03:47:38;15.13;;;13.38;;
39128;SDS011;24864;49.940;19.770;2022-07-23T03:50:06;15.68;;;13.40;;
39128;SDS011;24864;49.940;19.770;2022-07-23T03:52:36;15.25;;;12.93;;
39128;SDS011;24864;49.940;19.770;2022-07-23T03:55:04;17.23;;;12.25;;
39128;SDS011;24864;49.940;19.770;2022-07-23T03:57:33;21.08;;;13.27;;
39128;SDS011;24864;49.940;19.770;2022-07-23T04:00:03;14.35;;;12.95;;
39128;SDS011;24864;49.940;19.770;2022-07-23T04:02:32;13.68;;;12.30;;
39128;SDS011;24864;49.940;19.770;2022-07-23T04:05:00;16.10;;;13.25;;
39128;SDS011;24864;49.940;19.770;2022-07-23T04:07:28;13.95;;;12.50;;
39128;SDS011;24864;49.940;19.770;2022-07-23T04:09:56;13.43;;;12.02;;
39128;SDS011;24864;49.940;19.770;2022-07-23T04:12:24;14.35;;;12.20;;
39128;SDS011;24864;49.940;19.770;2022-07-23T04:14:52;16.58;;;12.82;;
39128;SDS011;24864;49.940;19.770;2022-07-23T04:17:21;13.60;;;11.98;;
39128;SDS011;24864;49.940;19.770;2022-07-23T04:19:49;16.23;;;12.43;;
39128;SDS011;24864;49.940;19.770;2022-07-23T04:22:17;13.75;;;12.05;;
39128;SDS011;24864;49.940;19.770;2022-07-23T04:24:45;15.50;;;13.15;;
39128;SDS011;24864;49.940;19.770;2022-07-23T04:27:14;13.18;;;11.93;;
39128;SDS011;24864;49.940;19.770;2022-07-23T04:29:42;13.70;;;12.30;;
39128;SDS011;24864;49.940;19.770;2022-07-23T04:32:10;14.90;;;13.13;;
39128;SDS011;24864;49.940;19.770;2022-07-23T04:34:39;12.38;;;11.18;;
39128;SDS011;24864;49.940;19.770;2022-07-23T04:37:07;16.33;;;11.90;;
39128;SDS011;24864;49.940;19.770;2022-07-23T04:39:35;12.65;;;11.45;;
39128;SDS011;24864;49.940;19.770;2022-07-23T04:42:03;15.45;;;11.85;;
39128;SDS011;24864;49.940;19.770;2022-07-23T04:44:31;15.13;;;12.15;;
39128;SDS011;24864;49.940;19.770;2022-07-23T04:46:59;13.40;;;12.18;;
39128;SDS011;24864;49.940;19.770;2022-07-23T04:49:27;16.15;;;11.90;;
39128;SDS011;24864;49.940;19.770;2022-07-23T04:51:56;12.60;;;11.38;;
39128;SDS011;24864;49.940;19.770;2022-07-23T04:54:24;13.88;;;11.45;;
39128;SDS011;24864;49.940;19.770;2022-07-23T04:56:52;12.82;;;11.48;;
39128;SDS011;24864;49.940;19.770;2022-07-23T04:59:20;12.77;;;11.48;;
39128;SDS011;24864;49.940;19.770;2022-07-23T05:01:48;13.50;;;10.85;;
39128;SDS011;24864;49.940;19.770;2022-07-23T05:04:16;12.10;;;10.43;;
39128;SDS011;24864;49.940;19.770;2022-07-23T05:06:44;14.48;;;11.90;;
39128;SDS011;24864;49.940;19.770;2022-07-23T05:09:14;11.77;;;10.65;;
39128;SDS011;24864;49.940;19.770;2022-07-23T05:11:42;12.07;;;10.98;;
39128;SDS011;24864;49.940;19.770;2022-07-23T05:14:10;13.27;;;10.30;;
39128;SDS011;24864;49.940;19.770;2022-07-23T05:16:39;16.92;;;10.80;;
39128;SDS011;24864;49.940;19.770;2022-07-23T05:19:07;12.13;;;10.07;;
39128;SDS011;24864;49.940;19.770;2022-07-23T05:21:34;14.10;;;11.00;;
39128;SDS011;24864;49.940;19.770;2022-07-23T05:24:03;12.55;;;10.82;;
39128;SDS011;24864;49.940;19.770;2022-07-23T05:26:32;12.32;;;11.10;;
39128;SDS011;24864;49.940;19.770;2022-07-23T05:29:01;12.43;;;11.18;;
39128;SDS011;24864;49.940;19.770;2022-07-23T05:31:30;12.73;;;11.52;;
39128;SDS011;24864;49.940;19.770;2022-07-23T05:33:58;11.52;;;10.40;;
39128;SDS011;24864;49.940;19.770;2022-07-23T05:36:26;13.65;;;10.23;;
39128;SDS011;24864;49.940;19.770;2022-07-23T05:38:54;12.07;;;10.88;;
39128;SDS011;24864;49.940;19.770;2022-07-23T05:41:22;11.90;;;10.35;;
39128;SDS011;24864;49.940;19.770;2022-07-23T05:43:52;14.05;;;11.45;;
39128;SDS011;24864;49.940;19.770;2022-07-23T05:46:20;19.10;;;9.57;;
39128;SDS011;24864;49.940;19.770;2022-07-23T05:48:49;11.23;;;10.02;;
39128;SDS011;24864;49.940;19.770;2022-07-23T05:51:19;16.45;;;9.38;;
39128;SDS011;24864;49.940;19.770;2022-07-23T05:53:48;11.88;;;10.57;;
39128;SDS011;24864;49.940;19.770;2022-07-23T05:56:16;11.93;;;10.57;;
39128;SDS011;24864;49.940;19.770;2022-07-23T05:58:44;15.45;;;10.23;;
39128;SDS011;24864;49.940;19.770;2022-07-23T06:01:13;11.63;;;10.32;;
39128;SDS011;24864;49.940;19.770;2022-07-23T06:03:41;11.90;;;10.43;;
39128;SDS011;24864;49.940;19.770;2022-07-23T06:06:09;11.88;;;10.13;;
39128;SDS011;24864;49.940;19.770;2022-07-23T06:08:37;11.55;;;10.50;;
39128;SDS011;24864;49.940;19.770;2022-07-23T06:11:05;12.05;;;10.48;;
39128;SDS011;24864;49.940;19.770;2022-07-23T06:13:33;14.68;;;10.18;;
39128;SDS011;24864;49.940;19.770;2022-07-23T06:16:01;11.10;;;9.68;;
39128;SDS011;24864;49.940;19.770;2022-07-23T06:18:31;10.80;;;9.88;;
39128;SDS011;24864;49.940;19.770;2022-07-23T06:20:58;12.55;;;10.52;;
39128;SDS011;24864;49.940;19.770;2022-07-23T06:23:27;11.00;;;9.98;;
39128;SDS011;24864;49.940;19.770;2022-07-23T06:25:55;13.40;;;11.20;;
39128;SDS011;24864;49.940;19.770;2022-07-23T06:28:22;11.82;;;10.57;;
39128;SDS011;24864;49.940;19.770;2022-07-23T06:30:51;11.93;;;10.70;;
39128;SDS011;24864;49.940;19.770;2022-07-23T06:33:19;12.05;;;10.25;;
39128;SDS011;24864;49.940;19.770;2022-07-23T06:35:48;17.08;;;10.70;;
39128;SDS011;24864;49.940;19.770;2022-07-23T06:38:16;12.63;;;10.65;;
39128;SDS011;24864;49.940;19.770;2022-07-23T06:40:45;13.35;;;10.75;;
39128;SDS011;24864;49.940;19.770;2022-07-23T06:43:12;14.20;;;10.52;;
39128;SDS011;24864;49.940;19.770;2022-07-23T06:45:40;10.48;;;9.27;;
39128;SDS011;24864;49.940;19.770;2022-07-23T06:48:09;10.65;;;9.50;;
39128;SDS011;24864;49.940;19.770;2022-07-23T06:50:36;11.55;;;10.43;;
39128;SDS011;24864;49.940;19.770;2022-07-23T06:53:06;11.90;;;10.75;;
39128;SDS011;24864;49.940;19.770;2022-07-23T06:55:34;11.55;;;10.27;;
39128;SDS011;24864;49.940;19.770;2022-07-23T06:58:04;12.80;;;9.98;;
39128;SDS011;24864;49.940;19.770;2022-07-23T07:00:33;14.57;;;10.95;;
39128;SDS011;24864;49.940;19.770;2022-07-23T07:03:00;12.43;;;11.00;;
39128;SDS011;24864;49.940;19.770;2022-07-23T07:05:28;12.85;;;11.23;;
39128;SDS011;24864;49.940;19.770;2022-07-23T07:07:57;12.82;;;11.32;;
39128;SDS011;24864;49.940;19.770;2022-07-23T07:10:26;12.52;;;10.70;;
39128;SDS011;24864;49.940;19.770;2022-07-23T07:12:54;13.07;;;11.77;;
39128;SDS011;24864;49.940;19.770;2022-07-23T07:15:22;14.60;;;11.07;;
39128;SDS011;24864;49.940;19.770;2022-07-23T07:17:50;13.48;;;10.82;;
39128;SDS011;24864;49.940;19.770;2022-07-23T07:20:18;13.00;;;11.25;;
39128;SDS011;24864;49.940;19.770;2022-07-23T07:22:46;12.30;;;10.60;;
39128;SDS011;24864;49.940;19.770;2022-07-23T07:25:15;12.90;;;10.80;;
39128;SDS011;24864;49.940;19.770;2022-07-23T07:27:44;11.75;;;10.57;;
39128;SDS011;24864;49.940;19.770;2022-07-23T07:30:12;11.93;;;10.73;;
39128;SDS011;24864;49.940;19.770;2022-07-23T07:32:40;12.32;;;10.68;;
39128;SDS011;24864;49.940;19.770;2022-07-23T07:35:25;12.73;;;10.23;;
39128;SDS011;24864;49.940;19.770;2022-07-23T07:37:53;12.85;;;10.55;;
39128;SDS011;24864;49.940;19.770;2022-07-23T07:40:21;13.63;;;10.05;;
39128;SDS011;24864;49.940;19.770;2022-07-23T07:42:51;12.02;;;10.95;;
39128;SDS011;24864;49.940;19.770;2022-07-23T07:45:20;14.70;;;10.77;;
39128;SDS011;24864;49.940;19.770;2022-07-23T07:47:49;12.20;;;9.52;;
39128;SDS011;24864;49.940;19.770;2022-07-23T07:50:18;11.73;;;10.15;;
39128;SDS011;24864;49.940;19.770;2022-07-23T07:52:47;16.17;;;9.65;;
39128;SDS011;24864;49.940;19.770;2022-07-23T07:55:15;14.38;;;10.05;;
39128;SDS011;24864;49.940;19.770;2022-07-23T07:57:43;15.35;;;10.07;;
39128;SDS011;24864;49.940;19.770;2022-07-23T08:00:16;14.88;;;9.70;;
39128;SDS011;24864;49.940;19.770;2022-07-23T08:02:46;10.05;;;9.05;;
39128;SDS011;24864;49.940;19.770;2022-07-23T08:05:18;11.50;;;10.60;;
39128;SDS011;24864;49.940;19.770;2022-07-23T08:07:53;12.45;;;10.90;;
39128;SDS011;24864;49.940;19.770;2022-07-23T08:10:22;10.50;;;9.60;;
39128;SDS011;24864;49.940;19.770;2022-07-23T08:12:51;13.38;;;9.80;;
39128;SDS011;24864;49.940;19.770;2022-07-23T08:15:23;12.50;;;10.27;;
39128;SDS011;24864;49.940;19.770;2022-07-23T08:17:52;10.30;;;9.32;;
39128;SDS011;24864;49.940;19.770;2022-07-23T08:20:22;10.88;;;9.93;;
39128;SDS011;24864;49.940;19.770;2022-07-23T08:22:51;11.65;;;9.50;;
39128;SDS011;24864;49.940;19.770;2022-07-23T08:25:21;14.43;;;10.00;;
39128;SDS011;24864;49.940;19.770;2022-07-23T08:27:50;13.65;;;10.35;;
39128;SDS011;24864;49.940;19.770;2022-07-23T08:30:18;13.82;;;9.80;;
39128;SDS011;24864;49.940;19.770;2022-07-23T08:32:49;10.93;;;9.63;;
39128;SDS011;24864;49.940;19.770;2022-07-23T08:35:23;10.15;;;9.25;;
39128;SDS011;24864;49.940;19.770;2022-07-23T08:37:53;11.07;;;9.88;;
39128;SDS011;24864;49.940;19.770;2022-07-23T08:40:22;11.00;;;9.88;;
39128;SDS011;24864;49.940;19.770;2022-07-23T08:42:52;12.60;;;10.47;;
39128;SDS011;24864;49.940;19.770;2022-07-23T08:45:21;10.75;;;9.65;;
39128;SDS011;24864;49.940;19.770;2022-07-23T08:47:52;10.55;;;9.55;;
39128;SDS011;24864;49.940;19.770;2022-07-23T08:50:22;13.30;;;9.85;;
39128;SDS011;24864;49.940;19.770;2022-07-23T08:52:51;9.98;;;8.98;;
39128;SDS011;24864;49.940;19.770;2022-07-23T08:55:21;10.88;;;9.82;;
39128;SDS011;24864;49.940;19.770;2022-07-23T08:57:50;13.93;;;8.90;;
39128;SDS011;24864;49.940;19.770;2022-07-23T09:00:20;13.95;;;9.73;;
39128;SDS011;24864;49.940;19.770;2022-07-23T09:02:49;11.98;;;9.70;;
39128;SDS011;24864;49.940;19.770;2022-07-23T09:05:19;9.65;;;8.70;;
39128;SDS011;24864;49.940;19.770;2022-07-23T09:08:04;12.77;;;9.10;;
39128;SDS011;24864;49.940;19.770;2022-07-23T09:10:43;12.10;;;8.68;;
39128;SDS011;24864;49.940;19.770;2022-07-23T09:13:26;9.35;;;8.45;;
39128;SDS011;24864;49.940;19.770;2022-07-23T09:15:59;10.00;;;8.98;;
39128;SDS011;24864;49.940;19.770;2022-07-23T09:18:30;11.40;;;8.88;;
39128;SDS011;24864;49.940;19.770;2022-07-23T09:21:11;10.13;;;9.23;;
39128;SDS011;24864;49.940;19.770;2022-07-23T09:23:44;9.43;;;8.50;;
39128;SDS011;24864;49.940;19.770;2022-07-23T09:26:20;13.38;;;9.65;;
39128;SDS011;24864;49.940;19.770;2022-07-23T09:28:54;14.60;;;9.35;;
39128;SDS011;24864;49.940;19.770;2022-07-23T09:31:25;9.95;;;9.05;;
39128;SDS011;24864;49.940;19.770;2022-07-23T09:34:06;11.02;;;9.30;;
39128;SDS011;24864;49.940;19.770;2022-07-23T09:36:37;15.77;;;8.80;;
39128;SDS011;24864;49.940;19.770;2022-07-23T09:39:06;10.98;;;8.30;;
39128;SDS011;24864;49.940;19.770;2022-07-23T09:41:35;9.77;;;8.88;;
39128;SDS011;24864;49.940;19.770;2022-07-23T09:46:57;12.15;;;8.80;;
39128;SDS011;24864;49.940;19.770;2022-07-23T09:49:26;10.15;;;8.10;;
39128;SDS011;24864;49.940;19.770;2022-07-23T09:51:57;12.63;;;8.68;;
39128;SDS011;24864;49.940;19.770;2022-07-23T09:54:28;9.43;;;8.40;;
39128;SDS011;24864;49.940;19.770;2022-07-23T09:57:02;11.38;;;8.73;;
39128;SDS011;24864;49.940;19.770;2022-07-23T09:59:33;9.45;;;7.90;;
39128;SDS011;24864;49.940;19.770;2022-07-23T10:02:02;10.25;;;8.07;;
39128;SDS011;24864;49.940;19.770;2022-07-23T10:04:32;9.77;;;8.40;;
39128;SDS011;24864;49.940;19.770;2022-07-23T10:07:05;9.35;;;8.43;;
39128;SDS011;24864;49.940;19.770;2022-07-23T10:09:35;9.88;;;7.68;;
39128;SDS011;24864;49.940;19.770;2022-07-23T10:12:05;7.97;;;7.18;;
39128;SDS011;24864;49.940;19.770;2022-07-23T10:14:44;12.68;;;7.13;;
39128;SDS011;24864;49.940;19.770;2022-07-23T10:17:12;7.47;;;6.80;;
39128;SDS011;24864;49.940;19.770;2022-07-23T10:19:40;7.28;;;6.57;;
39128;SDS011;24864;49.940;19.770;2022-07-23T10:22:10;8.70;;;7.88;;
39128;SDS011;24864;49.940;19.770;2022-07-23T10:24:44;8.10;;;7.28;;
39128;SDS011;24864;49.940;19.770;2022-07-23T10:27:26;11.00;;;7.28;;
39128;SDS011;24864;49.940;19.770;2022-07-23T10:32:40;10.43;;;7.88;;
39128;SDS011;24864;49.940;19.770;2022-07-23T10:35:19;11.57;;;7.28;;
39128;SDS011;24864;49.940;19.770;2022-07-23T10:37:56;8.55;;;7.93;;
39128;SDS011;24864;49.940;19.770;2022-07-23T10:40:30;8.15;;;7.35;;
39128;SDS011;24864;49.940;19.770;2022-07-23T10:42:58;8.20;;;7.47;;
39128;SDS011;24864;49.940;19.770;2022-07-23T10:45:29;9.93;;;7.13;;
39128;SDS011;24864;49.940;19.770;2022-07-23T10:48:12;6.90;;;6.40;;
39128;SDS011;24864;49.940;19.770;2022-07-23T10:50:42;7.03;;;6.45;;
39128;SDS011;24864;49.940;19.770;2022-07-23T10:53:15;8.27;;;7.43;;
39128;SDS011;24864;49.940;19.770;2022-07-23T10:55:46;8.10;;;7.03;;
39128;SDS011;24864;49.940;19.770;2022-07-23T10:58:19;7.78;;;6.60;;
39128;SDS011;24864;49.940;19.770;2022-07-23T11:03:30;6.82;;;6.32;;
39128;SDS011;24864;49.940;19.770;2022-07-23T11:06:02;7.90;;;7.10;;
39128;SDS011;24864;49.940;19.770;2022-07-23T11:08:32;10.98;;;6.80;;
39128;SDS011;24864;49.940;19.770;2022-07-23T11:11:10;7.18;;;6.57;;
39128;SDS011;24864;49.940;19.770;2022-07-23T11:13:48;8.82;;;6.50;;
39128;SDS011;24864;49.940;19.770;2022-07-23T11:16:19;7.40;;;6.80;;
39128;SDS011;24864;49.940;19.770;2022-07-23T11:18:53;8.00;;;7.35;;
39128;SDS011;24864;49.940;19.770;2022-07-23T11:21:41;7.55;;;6.72;;
39128;SDS011;24864;49.940;19.770;2022-07-23T11:24:21;7.50;;;6.88;;
39128;SDS011;24864;49.940;19.770;2022-07-23T11:26:52;7.80;;;7.07;;
39128;SDS011;24864;49.940;19.770;2022-07-23T11:32:30;8.48;;;7.75;;
39128;SDS011;24864;49.940;19.770;2022-07-23T11:35:02;8.30;;;7.60;;
39128;SDS011;24864;49.940;19.770;2022-07-23T11:37:45;8.07;;;7.30;;
39128;SDS011;24864;49.940;19.770;2022-07-23T11:40:16;7.50;;;6.85;;
39128;SDS011;24864;49.940;19.770;2022-07-23T11:42:51;7.82;;;7.13;;
39128;SDS011;24864;49.940;19.770;2022-07-23T11:45:21;7.75;;;6.95;;
39128;SDS011;24864;49.940;19.770;2022-07-23T11:47:50;8.18;;;7.38;;
39128;SDS011;24864;49.940;19.770;2022-07-23T11:50:18;10.07;;;7.45;;
39128;SDS011;24864;49.940;19.770;2022-07-23T11:52:46;7.75;;;7.18;;
39128;SDS011;24864;49.940;19.770;2022-07-23T11:55:15;8.00;;;7.30;;
39128;SDS011;24864;49.940;19.770;2022-07-23T11:57:43;7.85;;;7.15;;
39128;SDS011;24864;49.940;19.770;2022-07-23T12:00:13;7.70;;;7.00;;
39128;SDS011;24864;49.940;19.770;2022-07-23T12:02:43;8.88;;;7.68;;
39128;SDS011;24864;49.940;19.770;2022-07-23T12:07:42;9.27;;;7.60;;
39128;SDS011;24864;49.940;19.770;2022-07-23T12:10:12;8.30;;;7.50;;
39128;SDS011;24864;49.940;19.770;2022-07-23T12:12:44;7.90;;;7.03;;
39128;SDS011;24864;49.940;19.770;2022-07-23T12:15:16;7.55;;;6.72;;
39128;SDS011;24864;49.940;19.770;2022-07-23T12:17:46;7.80;;;7.10;;
39128;SDS011;24864;49.940;19.770;2022-07-23T12:20:17;11.95;;;7.35;;
39128;SDS011;24864;49.940;19.770;2022-07-23T12:22:48;7.88;;;7.13;;
39128;SDS011;24864;49.940;19.770;2022-07-23T12:25:18;8.68;;;7.45;;
39128;SDS011;24864;49.940;19.770;2022-07-23T12:27:58;8.85;;;7.50;;
39128;SDS011;24864;49.940;19.770;2022-07-23T12:30:30;7.93;;;7.32;;
39128;SDS011;24864;49.940;19.770;2022-07-23T12:33:01;7.38;;;6.80;;
39128;SDS011;24864;49.940;19.770;2022-07-23T12:35:30;8.25;;;7.45;;
39128;SDS011;24864;49.940;19.770;2022-07-23T12:38:00;8.45;;;7.65;;
39128;SDS011;24864;49.940;19.770;2022-07-23T12:40:31;7.93;;;7.22;;
39128;SDS011;24864;49.940;19.770;2022-07-23T12:43:02;7.60;;;6.90;;
39128;SDS011;24864;49.940;19.770;2022-07-23T12:45:42;8.13;;;7.15;;
39128;SDS011;24864;49.940;19.770;2022-07-23T12:48:15;7.20;;;6.60;;
39128;SDS011;24864;49.940;19.770;2022-07-23T12:50:54;7.32;;;6.70;;
39128;SDS011;24864;49.940;19.770;2022-07-23T12:53:25;8.30;;;7.15;;
39128;SDS011;24864;49.940;19.770;2022-07-23T12:55:59;8.70;;;7.35;;
39128;SDS011;24864;49.940;19.770;2022-07-23T12:58:47;7.90;;;7.30;;
39128;SDS011;24864;49.940;19.770;2022-07-23T13:01:27;8.35;;;7.63;;
39128;SDS011;24864;49.940;19.770;2022-07-23T13:03:58;8.38;;;7.57;;
39128;SDS011;24864;49.940;19.770;2022-07-23T13:06:31;12.82;;;7.90;;
39128;SDS011;24864;49.940;19.770;2022-07-23T13:09:01;8.73;;;8.13;;
39128;SDS011;24864;49.940;19.770;2022-07-23T13:11:31;8.77;;;7.97;;
39128;SDS011;24864;49.940;19.770;2022-07-23T13:14:01;8.25;;;7.57;;
39128;SDS011;24864;49.940;19.770;2022-07-23T13:16:32;8.48;;;7.78;;
39128;SDS011;24864;49.940;19.770;2022-07-23T13:19:01;9.05;;;8.15;;
39128;SDS011;24864;49.940;19.770;2022-07-23T13:21:30;12.57;;;8.38;;
39128;SDS011;24864;49.940;19.770;2022-07-23T13:23:58;8.55;;;7.72;;
39128;SDS011;24864;49.940;19.770;2022-07-23T13:26:26;14.60;;;8.48;;
39128;SDS011;24864;49.940;19.770;2022-07-23T13:28:54;8.75;;;7.45;;
39128;SDS011;24864;49.940;19.770;2022-07-23T13:31:25;8.80;;;7.90;;
39128;SDS011;24864;49.940;19.770;2022-07-23T13:33:53;9.27;;;8.48;;
39128;SDS011;24864;49.940;19.770;2022-07-23T13:36:20;15.65;;;8.05;;
39128;SDS011;24864;49.940;19.770;2022-07-23T13:38:48;10.68;;;8.05;;
39128;SDS011;24864;49.940;19.770;2022-07-23T13:41:17;8.98;;;7.45;;
39128;SDS011;24864;49.940;19.770;2022-07-23T13:43:45;9.60;;;8.40;;
39128;SDS011;24864;49.940;19.770;2022-07-23T13:46:13;10.07;;;7.80;;
39128;SDS011;24864;49.940;19.770;2022-07-23T13:48:43;8.65;;;7.70;;
39128;SDS011;24864;49.940;19.770;2022-07-23T13:51:11;8.27;;;7.47;;
39128;SDS011;24864;49.940;19.770;2022-07-23T13:53:39;8.27;;;7.50;;
39128;SDS011;24864;49.940;19.770;2022-07-23T13:56:07;9.05;;;8.30;;
39128;SDS011;24864;49.940;19.770;2022-07-23T13:58:35;8.52;;;7.75;;
39128;SDS011;24864;49.940;19.770;2022-07-23T14:01:03;8.75;;;7.85;;
39128;SDS011;24864;49.940;19.770;2022-07-23T14:03:32;9.38;;;7.93;;
39128;SDS011;24864;49.940;19.770;2022-07-23T14:06:01;9.77;;;8.02;;
39128;SDS011;24864;49.940;19.770;2022-07-23T14:08:30;9.68;;;7.60;;
39128;SDS011;24864;49.940;19.770;2022-07-23T14:10:58;9.05;;;8.18;;
39128;SDS011;24864;49.940;19.770;2022-07-23T14:13:32;9.70;;;7.65;;
39128;SDS011;24864;49.940;19.770;2022-07-23T14:16:00;10.75;;;8.15;;
39128;SDS011;24864;49.940;19.770;2022-07-23T14:18:29;21.17;;;14.98;;
39128;SDS011;24864;49.940;19.770;2022-07-23T14:20:59;8.98;;;8.10;;
39128;SDS011;24864;49.940;19.770;2022-07-23T14:23:29;10.45;;;8.50;;
39128;SDS011;24864;49.940;19.770;2022-07-23T14:25:57;10.50;;;8.15;;
39128;SDS011;24864;49.940;19.770;2022-07-23T14:28:25;11.23;;;7.95;;
39128;SDS011;24864;49.940;19.770;2022-07-23T14:30:54;8.98;;;8.18;;
39128;SDS011;24864;49.940;19.770;2022-07-23T14:33:22;10.25;;;8.80;;
39128;SDS011;24864;49.940;19.770;2022-07-23T14:35:52;12.25;;;8.90;;
39128;SDS011;24864;49.940;19.770;2022-07-23T14:38:21;15.80;;;8.52;;
39128;SDS011;24864;49.940;19.770;2022-07-23T14:40:49;10.32;;;8.48;;
39128;SDS011;24864;49.940;19.770;2022-07-23T14:43:18;9.30;;;8.20;;
39128;SDS011;24864;49.940;19.770;2022-07-23T14:45:46;12.65;;;8.52;;
39128;SDS011;24864;49.940;19.770;2022-07-23T14:48:15;9.90;;;9.00;;